createdAt,value
2022-08-10T00:01:02.333Z,6.22
2022-08-10T00:03:07.975Z,5.47
2022-08-10T00:05:11.780Z,6.53
2022-08-10T00:07:16.912Z,6.28
2022-08-10T00:09:20.485Z,6.05
2022-08-10T00:11:24.360Z,6.00
2022-08-10T00:13:28.349Z,6.13
2022-08-10T00:15:52.353Z,6.05
2022-08-10T00:17:56.355Z,6.40
2022-08-10T00:20:03.199Z,6.35
2022-08-10T00:22:08.252Z,6.00
2022-08-10T00:24:13.348Z,6.13
2022-08-10T00:26:17.169Z,5.88
2022-08-10T00:28:22.107Z,5.80
2022-08-10T00:30:25.817Z,6.88
2022-08-10T00:32:29.379Z,6.25
2022-08-10T00:34:34.869Z,6.30
2022-08-10T00:36:38.551Z,5.70
2022-08-10T00:38:42.656Z,6.13
2022-08-10T00:40:47.816Z,6.28
2022-08-10T00:42:51.491Z,6.43
2022-08-10T00:44:55.262Z,6.35
2022-08-10T00:47:01.246Z,5.78
2022-08-10T00:49:05.004Z,6.78
2022-08-10T00:51:08.766Z,6.10
2022-08-10T00:53:12.523Z,6.05
2022-08-10T00:55:16.295Z,6.07
2022-08-10T00:57:22.279Z,6.72
2022-08-10T00:59:26.166Z,6.30
2022-08-10T01:02:08.498Z,6.50
2022-08-10T01:06:29.545Z,5.93
2022-08-10T01:08:40.498Z,5.60
2022-08-10T01:10:54.072Z,5.43
2022-08-10T01:13:08.616Z,5.20
2022-08-10T01:15:22.333Z,5.82
2022-08-10T01:17:49.887Z,5.60
2022-08-10T01:20:03.051Z,5.75
2022-08-10T01:22:24.567Z,5.65
2022-08-10T01:25:05.405Z,6.10
2022-08-10T01:27:26.998Z,5.45
2022-08-10T01:29:58.201Z,5.72
2022-08-10T01:32:07.174Z,5.43
2022-08-10T01:34:19.033Z,5.63
2022-08-10T01:36:32.441Z,5.70
2022-08-10T01:40:51.005Z,5.20
2022-08-10T01:43:07.838Z,6.03
2022-08-10T01:45:17.201Z,5.40
2022-08-10T01:47:42.759Z,5.50
2022-08-10T01:49:48.414Z,5.40
2022-08-10T01:51:55.779Z,5.70
2022-08-10T01:54:02.726Z,5.60
2022-08-10T01:56:09.018Z,6.30
2022-08-10T01:58:15.278Z,5.80
2022-08-10T02:00:21.305Z,6.60
2022-08-10T02:02:27.027Z,5.75
2022-08-10T02:04:32.643Z,5.35
2022-08-10T02:06:41.408Z,5.20
2022-08-10T02:08:47.756Z,5.50
2022-08-10T02:11:01.474Z,5.20
2022-08-10T02:13:05.961Z,5.38
2022-08-10T02:15:14.407Z,4.93
2022-08-10T02:18:00.353Z,5.30
2022-08-10T02:19:47.760Z,5.18
2022-08-10T02:22:36.818Z,5.22
2022-08-10T02:24:21.582Z,5.30
2022-08-10T02:26:26.005Z,5.63
2022-08-10T02:28:32.103Z,5.35
2022-08-10T02:30:37.866Z,5.07
2022-08-10T02:32:44.595Z,6.18
2022-08-10T02:34:58.808Z,5.03
2022-08-10T02:37:10.918Z,5.43
2022-08-10T02:39:18.865Z,5.18
2022-08-10T02:45:12.666Z,5.70
2022-08-10T02:45:25.683Z,5.73
2022-08-10T02:46:40.902Z,5.28
2022-08-10T02:48:48.574Z,5.68
2022-08-10T02:50:59.085Z,5.00
2022-08-10T02:53:06.893Z,4.75
2022-08-10T02:55:18.738Z,5.20
2022-08-10T02:57:27.138Z,4.93
2022-08-10T02:59:40.318Z,5.05
2022-08-10T03:03:57.492Z,4.65
2022-08-10T03:06:05.538Z,4.85
2022-08-10T03:08:12.072Z,5.47
2022-08-10T03:10:18.946Z,5.15
2022-08-10T03:12:38.237Z,5.30
2022-08-10T03:14:43.356Z,5.93
2022-08-10T03:16:48.601Z,5.28
2022-08-10T03:18:55.214Z,5.15
2022-08-10T03:21:00.741Z,5.72
2022-08-10T03:23:06.217Z,5.40
2022-08-10T03:25:11.954Z,5.45
2022-08-10T03:27:17.544Z,5.35
2022-08-10T03:29:22.967Z,5.28
2022-08-10T03:31:28.301Z,5.82
2022-08-10T03:33:36.813Z,5.05
2022-08-10T03:35:42.220Z,4.90
2022-08-10T03:38:24.116Z,5.03
2022-08-10T03:40:45.765Z,4.85
2022-08-10T03:42:53.851Z,4.88
2022-08-10T03:44:59.542Z,5.85
2022-08-10T03:47:16.288Z,4.55
2022-08-10T03:49:21.364Z,5.18
2022-08-10T03:51:28.121Z,4.90
2022-08-10T03:54:04.908Z,5.13
2022-08-10T03:56:29.462Z,4.95
2022-08-10T03:58:21.148Z,4.72
2022-08-10T04:00:25.376Z,5.22
2022-08-10T04:02:46.987Z,5.38
2022-08-10T04:04:52.910Z,4.82
2022-08-10T04:06:59.062Z,4.93
2022-08-10T04:09:03.986Z,5.20
2022-08-10T04:11:07.438Z,5.10
2022-08-10T04:13:10.737Z,5.05
2022-08-10T04:15:14.117Z,4.70
2022-08-10T04:17:17.391Z,4.60
2022-08-10T04:19:45.369Z,4.97
2022-08-10T04:21:56.334Z,4.75
2022-08-10T04:24:04.135Z,4.88
2022-08-10T04:26:08.143Z,4.55
2022-08-10T04:28:13.091Z,4.80
2022-08-10T04:30:16.636Z,4.93
2022-08-10T04:32:22.419Z,5.15
2022-08-10T04:34:31.963Z,5.75
2022-08-10T04:36:36.408Z,4.80
2022-08-10T04:38:41.715Z,5.43
2022-08-10T04:40:47.620Z,4.80
2022-08-10T04:42:51.111Z,5.40
2022-08-10T04:44:54.352Z,4.80
2022-08-10T04:46:59.250Z,4.80
2022-08-10T04:49:02.868Z,5.25
2022-08-10T04:51:10.689Z,5.03
2022-08-10T04:53:14.563Z,5.03
2022-08-10T04:55:17.960Z,5.05
2022-08-10T04:57:22.649Z,4.88
2022-08-10T04:59:25.952Z,4.47
2022-08-10T05:02:21.623Z,4.88
2022-08-10T05:06:15.857Z,5.35
2022-08-10T05:08:19.509Z,4.85
2022-08-10T05:10:23.308Z,5.30
2022-08-10T05:12:28.395Z,4.90
2022-08-10T05:14:31.704Z,4.28
2022-08-10T05:16:35.024Z,5.13
2022-08-10T05:18:38.340Z,4.68
2022-08-10T05:20:41.667Z,4.88
2022-08-10T05:22:46.516Z,4.85
2022-08-10T05:24:49.928Z,4.82
2022-08-10T05:27:00.524Z,4.78
2022-08-10T05:29:15.079Z,4.57
2022-08-10T05:31:23.499Z,4.95
2022-08-10T05:33:27.648Z,5.18
2022-08-10T05:35:55.366Z,4.78
2022-08-10T05:38:12.263Z,4.68
2022-08-10T05:40:18.286Z,4.88
2022-08-10T05:42:21.842Z,4.95
2022-08-10T05:44:26.799Z,4.55
2022-08-10T05:46:30.328Z,4.65
2022-08-10T05:48:53.868Z,5.07
2022-08-10T05:50:57.822Z,5.32
2022-08-10T05:53:39.132Z,5.00
2022-08-10T05:55:25.507Z,4.97
2022-08-10T05:57:31.093Z,4.72
2022-08-10T06:00:32.954Z,4.88
2022-08-10T06:02:31.477Z,5.32
2022-08-10T06:04:34.447Z,4.57
2022-08-10T06:06:39.308Z,5.20
2022-08-10T06:08:44.774Z,4.93
2022-08-10T06:12:23.573Z,4.85
2022-08-10T06:13:34.836Z,4.53
2022-08-10T06:15:58.175Z,4.28
2022-08-10T06:18:03.002Z,5.20
2022-08-10T06:20:07.514Z,5.18
2022-08-10T06:22:13.237Z,4.93
2022-08-10T06:24:18.136Z,4.78
2022-08-10T06:26:28.737Z,5.10
2022-08-10T06:28:37.880Z,4.00
2022-08-10T06:30:42.300Z,4.00
2022-08-10T06:32:48.000Z,4.53
2022-08-10T06:34:54.582Z,4.68
2022-08-10T06:37:00.570Z,4.22
2022-08-10T06:39:29.946Z,3.63
2022-08-10T06:44:01.451Z,3.42
2022-08-10T06:46:08.749Z,3.58
2022-08-10T06:48:22.742Z,3.35
2022-08-10T06:50:44.721Z,3.35
2022-08-10T06:52:51.442Z,3.20
2022-08-10T06:54:57.129Z,3.60
2022-08-10T06:57:18.232Z,3.20
2022-08-10T06:59:27.219Z,3.65
2022-08-10T07:01:36.858Z,3.20
2022-08-10T07:03:47.719Z,3.28
2022-08-10T07:05:53.081Z,2.70
2022-08-10T07:08:00.345Z,2.92
2022-08-10T07:10:03.809Z,2.90
2022-08-10T07:12:10.815Z,2.75
2022-08-10T07:14:18.413Z,2.70
2022-08-10T07:16:28.346Z,2.70
2022-08-10T07:18:33.787Z,2.92
2022-08-10T07:20:39.124Z,2.50
2022-08-10T07:23:54.550Z,2.80
2022-08-10T07:25:10.110Z,2.60
2022-08-10T07:27:14.710Z,2.65
2022-08-10T07:29:52.817Z,2.88
2022-08-10T07:31:57.155Z,3.33
2022-08-10T07:34:03.582Z,2.88
2022-08-10T07:36:11.771Z,2.60
2022-08-10T07:38:19.798Z,2.92
2022-08-10T07:40:25.055Z,2.40
2022-08-10T07:42:31.317Z,2.97
2022-08-10T07:44:36.184Z,2.67
2022-08-10T07:46:42.605Z,3.15
2022-08-10T07:48:49.871Z,2.55
2022-08-10T07:50:58.006Z,2.88
2022-08-10T07:53:04.700Z,3.20
2022-08-10T07:55:13.867Z,3.13
2022-08-10T07:57:30.739Z,2.60
2022-08-10T07:59:39.814Z,2.95
2022-08-10T08:01:50.642Z,2.70
2022-08-10T08:04:05.521Z,2.80
2022-08-10T08:06:15.503Z,2.25
2022-08-10T08:08:22.972Z,3.10
2022-08-10T08:10:29.375Z,3.17
2022-08-10T08:12:36.898Z,2.85
2022-08-10T08:14:45.184Z,3.10
2022-08-10T08:16:53.181Z,2.92
2022-08-10T08:19:24.076Z,3.28
2022-08-10T08:24:04.822Z,3.13
2022-08-10T08:24:06.201Z,2.90
2022-08-10T08:26:15.499Z,2.85
2022-08-10T08:28:20.179Z,3.28
2022-08-10T08:30:26.983Z,2.97
2022-08-10T08:32:34.665Z,3.20
2022-08-10T08:34:40.987Z,2.92
2022-08-10T08:36:46.007Z,2.90
2022-08-10T08:38:51.950Z,2.70
2022-08-10T08:41:02.652Z,2.70
2022-08-10T08:43:32.901Z,2.88
2022-08-10T08:46:01.093Z,2.83
2022-08-10T08:48:39.529Z,3.22
2022-08-10T08:51:01.977Z,3.03
2022-08-10T08:53:22.985Z,3.20
2022-08-10T08:56:05.078Z,3.42
2022-08-10T08:58:22.087Z,2.95
2022-08-10T09:00:37.895Z,3.05
2022-08-10T09:02:55.501Z,3.13
2022-08-10T09:05:08.839Z,3.08
2022-08-10T09:08:00.700Z,2.85
2022-08-10T09:10:16.404Z,3.00
2022-08-10T09:12:39.953Z,2.92
2022-08-10T09:14:53.016Z,3.20
2022-08-10T09:17:04.782Z,3.30
2022-08-10T09:19:19.702Z,3.05
2022-08-10T09:22:12.381Z,3.60
2022-08-10T09:24:20.371Z,3.10
2022-08-10T09:28:37.487Z,3.70
2022-08-10T09:31:10.864Z,2.95
2022-08-10T09:36:23.356Z,3.10
2022-08-10T09:36:25.146Z,3.83
2022-08-10T09:38:25.972Z,2.85
2022-08-10T09:41:00.722Z,2.97
2022-08-10T09:43:26.152Z,2.88
2022-08-10T09:45:41.578Z,3.22
2022-08-10T09:48:01.423Z,3.15
2022-08-10T09:50:17.969Z,3.28
2022-08-10T09:52:36.016Z,3.25
2022-08-10T09:54:50.219Z,3.25
2022-08-10T09:57:41.477Z,3.30
2022-08-10T10:00:01.621Z,3.10
2022-08-10T10:02:13.414Z,3.20
2022-08-10T10:04:25.766Z,3.65
2022-08-10T10:06:41.137Z,2.88
2022-08-10T10:08:58.325Z,3.30
2022-08-10T10:11:11.124Z,3.33
2022-08-10T10:14:01.869Z,3.60
2022-08-10T10:16:05.110Z,3.55
2022-08-10T10:18:28.336Z,3.53
2022-08-10T10:22:53.750Z,3.13
2022-08-10T10:25:20.781Z,3.20
2022-08-10T10:27:38.416Z,3.50
2022-08-10T10:29:56.853Z,3.30
2022-08-10T10:32:10.117Z,3.13
2022-08-10T10:34:22.784Z,3.28
2022-08-10T10:36:28.261Z,3.53
2022-08-10T10:38:40.307Z,3.72
2022-08-10T10:40:51.030Z,3.47
2022-08-10T10:43:07.180Z,3.85
2022-08-10T10:45:19.600Z,3.53
2022-08-10T10:47:46.687Z,2.75
2022-08-10T10:49:59.689Z,3.10
2022-08-10T10:54:13.383Z,3.63
2022-08-10T10:56:24.794Z,3.10
2022-08-10T10:58:35.749Z,3.67
2022-08-10T11:00:47.291Z,4.05
2022-08-10T11:03:02.763Z,3.72
2022-08-10T11:05:24.942Z,3.50
2022-08-10T11:07:37.407Z,3.70
2022-08-10T11:10:03.349Z,3.65
2022-08-10T11:12:25.406Z,3.47
2022-08-10T11:14:37.550Z,2.92
2022-08-10T11:16:51.716Z,3.55
2022-08-10T11:19:04.989Z,3.50
2022-08-10T11:21:24.509Z,3.55
2022-08-10T11:23:38.468Z,3.70
2022-08-10T11:25:46.115Z,3.67
2022-08-10T11:27:56.998Z,3.58
2022-08-10T11:30:04.988Z,3.50
2022-08-10T11:32:20.583Z,3.10
2022-08-10T11:34:48.699Z,3.45
2022-08-10T11:37:12.303Z,3.50
2022-08-10T11:39:21.180Z,3.60
2022-08-10T11:42:08.929Z,3.55
2022-08-10T11:44:13.340Z,3.55
2022-08-10T11:46:28.663Z,3.55
2022-08-10T11:48:53.415Z,3.45
2022-08-10T11:51:02.808Z,3.92
2022-08-10T11:53:18.816Z,3.15
2022-08-10T11:55:25.529Z,3.33
2022-08-10T11:57:54.293Z,3.28
2022-08-10T11:59:59.311Z,3.65
2022-08-10T12:02:04.274Z,3.60
2022-08-10T12:04:12.220Z,3.33
2022-08-10T12:06:39.210Z,3.45
2022-08-10T12:10:04.378Z,3.60
2022-08-10T12:11:23.976Z,3.40
2022-08-10T12:13:32.530Z,7.47
2022-08-10T12:15:42.328Z,3.53
2022-08-10T12:17:51.546Z,3.78
2022-08-10T12:20:04.516Z,3.70
2022-08-10T12:24:27.450Z,4.03
2022-08-10T12:26:39.232Z,3.28
2022-08-10T12:28:50.937Z,3.85
2022-08-10T12:30:59.559Z,3.30
2022-08-10T12:33:08.049Z,3.15
2022-08-10T12:35:23.698Z,3.47
2022-08-10T12:37:37.104Z,3.38
2022-08-10T12:40:06.914Z,3.75
2022-08-10T12:42:36.920Z,3.53
2022-08-10T12:44:49.748Z,3.50
2022-08-10T12:47:01.495Z,3.78
2022-08-10T12:49:21.636Z,3.50
2022-08-10T12:51:30.667Z,3.92
2022-08-10T12:53:45.598Z,4.25
2022-08-10T12:55:52.620Z,4.18
2022-08-10T12:57:58.904Z,4.32
2022-08-10T13:00:03.734Z,4.45
2022-08-10T13:02:10.891Z,4.53
2022-08-10T13:04:22.737Z,4.00
2022-08-10T13:06:30.803Z,5.93
2022-08-10T13:08:53.233Z,5.18
2022-08-10T13:11:03.338Z,4.80
2022-08-10T13:13:07.661Z,4.28
2022-08-10T13:15:46.223Z,4.30
2022-08-10T13:17:53.241Z,4.05
2022-08-10T13:20:08.177Z,4.18
2022-08-10T13:22:19.211Z,4.38
2022-08-10T13:24:29.070Z,4.75
2022-08-10T13:27:24.722Z,4.00
2022-08-10T13:29:12.706Z,4.07
2022-08-10T13:31:22.240Z,4.47
2022-08-10T13:34:40.732Z,4.63
2022-08-10T13:36:16.578Z,4.93
2022-08-10T13:38:23.432Z,4.65
2022-08-10T13:40:29.073Z,4.00
2022-08-10T13:42:38.157Z,4.30
2022-08-10T13:44:44.143Z,4.47
2022-08-10T13:46:52.869Z,4.28
2022-08-10T13:48:59.529Z,4.40
2022-08-10T13:51:04.597Z,4.38
2022-08-10T13:53:15.233Z,4.07
2022-08-10T13:55:25.296Z,4.13
2022-08-10T13:57:32.528Z,4.03
2022-08-10T14:00:34.326Z,3.92
2022-08-10T14:02:04.536Z,3.88
2022-08-10T14:04:12.740Z,4.00
2022-08-10T14:06:18.829Z,3.85
2022-08-10T14:08:26.920Z,4.10
2022-08-10T14:11:08.979Z,3.88
2022-08-10T14:13:04.778Z,3.28
2022-08-10T14:15:16.270Z,4.00
2022-08-10T14:17:22.296Z,5.75
2022-08-10T14:19:28.445Z,4.80
2022-08-10T14:21:38.853Z,4.38
2022-08-10T14:23:52.302Z,3.67
2022-08-10T14:26:04.119Z,3.97
2022-08-10T14:28:10.733Z,3.60
2022-08-10T14:30:18.390Z,3.95
2022-08-10T14:32:28.188Z,3.45
2022-08-10T14:36:14.937Z,3.30
2022-08-10T14:37:03.935Z,3.60
2022-08-10T14:39:09.741Z,3.35
2022-08-10T14:42:04.500Z,3.50
2022-08-10T14:43:44.588Z,4.30
2022-08-10T14:46:01.407Z,4.45
2022-08-10T14:48:11.557Z,3.90
2022-08-10T14:50:31.643Z,3.75
2022-08-10T14:52:44.263Z,4.00
2022-08-10T14:54:52.889Z,3.13
2022-08-10T14:56:58.315Z,3.10
2022-08-10T14:59:07.594Z,3.47
2022-08-10T15:01:20.980Z,4.00
2022-08-10T15:03:59.544Z,3.90
2022-08-10T15:05:53.388Z,3.30
2022-08-10T15:08:04.106Z,3.35
2022-08-10T15:10:09.921Z,3.90
2022-08-10T15:12:21.890Z,3.47
2022-08-10T15:14:42.653Z,3.10
2022-08-10T15:16:50.260Z,3.55
2022-08-10T15:18:58.663Z,3.38
2022-08-10T15:21:17.309Z,3.50
2022-08-10T15:23:29.826Z,3.90
2022-08-10T15:25:39.431Z,4.20
2022-08-10T15:28:08.270Z,3.97
2022-08-10T15:30:13.730Z,4.13
2022-08-10T15:32:37.227Z,4.40
2022-08-10T15:34:58.906Z,3.80
2022-08-10T15:37:40.336Z,3.70
2022-08-10T15:40:25.091Z,3.70
2022-08-10T15:42:18.904Z,4.00
2022-08-10T15:44:22.886Z,3.60
2022-08-10T15:46:34.958Z,3.70
2022-08-10T15:48:48.288Z,4.45
2022-08-10T15:51:00.614Z,3.97
2022-08-10T15:53:16.673Z,3.75
2022-08-10T15:55:42.883Z,3.90
2022-08-10T15:57:52.175Z,3.75
2022-08-10T16:00:02.151Z,4.28
2022-08-10T16:02:17.428Z,3.80
2022-08-10T16:04:32.324Z,4.18
2022-08-10T16:06:42.042Z,3.85
2022-08-10T16:08:57.057Z,5.13
2022-08-10T16:11:19.202Z,4.20
2022-08-10T16:13:59.608Z,4.13
2022-08-10T16:16:00.020Z,4.07
2022-08-10T16:18:06.099Z,4.53
2022-08-10T16:20:12.691Z,4.15
2022-08-10T16:22:35.883Z,4.00
2022-08-10T16:24:47.577Z,3.90
2022-08-10T16:26:54.362Z,3.90
2022-08-10T16:29:03.189Z,4.28
2022-08-10T16:31:14.717Z,3.70
2022-08-10T16:33:20.833Z,3.97
2022-08-10T16:35:26.165Z,4.03
2022-08-10T16:37:56.700Z,3.83
2022-08-10T16:40:02.518Z,4.07
2022-08-10T16:42:11.668Z,4.00
2022-08-10T16:44:18.350Z,3.78
2022-08-10T16:46:23.778Z,4.03
2022-08-10T16:48:49.763Z,4.30
2022-08-10T16:50:58.306Z,4.35
2022-08-10T16:53:03.618Z,4.00
2022-08-10T16:55:23.464Z,4.10
2022-08-10T16:57:29.918Z,4.47
2022-08-10T16:59:38.458Z,4.15
2022-08-10T17:01:43.584Z,3.70
2022-08-10T17:04:07.743Z,6.13
2022-08-10T17:06:21.353Z,4.38
2022-08-10T17:08:25.807Z,4.25
2022-08-10T17:10:31.143Z,4.50
2022-08-10T17:12:36.068Z,4.25
2022-08-10T17:14:41.705Z,3.55
2022-08-10T17:16:52.160Z,4.38
2022-08-10T17:18:58.728Z,3.90
2022-08-10T17:21:07.837Z,3.60
2022-08-10T17:23:15.807Z,4.32
2022-08-10T17:25:23.078Z,3.67
2022-08-10T17:28:04.240Z,3.72
2022-08-10T17:30:30.044Z,4.07
2022-08-10T17:32:44.441Z,4.25
2022-08-10T17:34:53.288Z,3.58
2022-08-10T17:37:01.094Z,4.35
2022-08-10T17:39:12.695Z,4.25
2022-08-10T17:41:20.039Z,4.80
2022-08-10T17:43:46.129Z,4.35
2022-08-10T17:45:50.721Z,4.88
2022-08-10T17:47:58.671Z,4.53
2022-08-10T17:50:04.008Z,4.65
2022-08-10T17:52:12.152Z,4.70
2022-08-10T17:54:28.177Z,4.40
2022-08-10T17:56:35.110Z,4.57
2022-08-10T17:58:48.671Z,3.80
2022-08-10T18:00:55.839Z,4.30
2022-08-10T18:03:01.206Z,4.07
2022-08-10T18:05:09.878Z,3.60
2022-08-10T18:07:15.286Z,3.85
2022-08-10T18:09:30.986Z,3.92
2022-08-10T18:11:42.209Z,3.72
2022-08-10T18:13:55.450Z,3.33
2022-08-10T18:16:00.518Z,3.92
2022-08-10T18:18:04.892Z,3.70
2022-08-10T18:20:11.121Z,3.53
2022-08-10T18:22:17.380Z,3.90
2022-08-10T18:24:23.147Z,3.30
2022-08-10T18:26:28.293Z,3.60
2022-08-10T18:28:34.459Z,3.67
2022-08-10T18:30:50.510Z,3.85
2022-08-10T18:32:58.102Z,3.80
2022-08-10T18:35:04.725Z,3.67
2022-08-10T18:37:10.414Z,3.70
2022-08-10T18:39:17.139Z,3.90
2022-08-10T18:41:24.831Z,4.30
2022-08-10T18:44:07.238Z,4.07
2022-08-10T18:46:03.610Z,3.50
2022-08-10T18:48:12.825Z,3.85
2022-08-10T18:50:23.250Z,3.60
2022-08-10T18:52:29.573Z,3.72
2022-08-10T18:54:44.941Z,3.42
2022-08-10T18:56:58.923Z,3.28
2022-08-10T18:59:13.021Z,3.58
2022-08-10T19:01:34.052Z,4.53
2022-08-10T19:04:04.910Z,3.90
2022-08-10T19:06:20.913Z,3.67
2022-08-10T19:08:57.847Z,4.10
2022-08-10T19:11:07.378Z,5.68
2022-08-10T19:13:21.343Z,14.68
2022-08-10T19:15:44.258Z,6.35
2022-08-10T19:18:03.948Z,4.90
2022-08-10T19:20:20.345Z,5.20
2022-08-10T19:22:29.100Z,5.10
2022-08-10T19:24:45.341Z,4.78
2022-08-10T19:26:55.958Z,4.00
2022-08-10T19:29:47.369Z,4.20
2022-08-10T19:31:51.953Z,4.13
2022-08-10T19:34:11.483Z,4.22
2022-08-10T19:36:34.783Z,4.15
2022-08-10T19:38:49.526Z,4.05
2022-08-10T19:41:09.921Z,4.38
2022-08-10T19:43:20.772Z,4.88
2022-08-10T19:46:02.655Z,5.05
2022-08-10T19:48:17.465Z,4.88
2022-08-10T19:50:25.665Z,7.00
2022-08-10T19:52:39.247Z,3.83
2022-08-10T19:54:53.696Z,4.45
2022-08-10T19:57:06.961Z,4.68
2022-08-10T20:00:15.165Z,4.68
2022-08-10T20:01:55.040Z,4.20
2022-08-10T20:04:06.294Z,4.38
2022-08-10T20:06:18.830Z,4.32
2022-08-10T20:08:29.660Z,4.00
2022-08-10T20:10:44.023Z,4.45
2022-08-10T20:12:58.041Z,4.28
2022-08-10T20:15:08.860Z,4.93
2022-08-10T20:17:24.761Z,4.57
2022-08-10T20:19:52.520Z,4.20
2022-08-10T20:22:03.559Z,4.60
2022-08-10T20:24:12.549Z,4.50
2022-08-10T20:26:21.078Z,4.70
2022-08-10T20:28:33.180Z,5.05
2022-08-10T20:30:42.803Z,5.10
2022-08-10T20:32:52.569Z,5.60
2022-08-10T20:35:05.953Z,5.53
2022-08-10T20:37:45.059Z,5.68
2022-08-10T20:40:09.773Z,5.72
2022-08-10T20:42:19.636Z,5.45
2022-08-10T20:44:40.723Z,5.85
2022-08-10T20:46:49.605Z,6.00
2022-08-10T20:49:00.053Z,5.78
2022-08-10T20:51:07.903Z,6.15
2022-08-10T20:53:15.624Z,5.63
2022-08-10T20:55:21.179Z,5.93
2022-08-10T20:57:57.570Z,5.90
2022-08-10T21:00:08.092Z,5.50
2022-08-10T21:02:32.316Z,5.57
2022-08-10T21:04:49.147Z,5.43
2022-08-10T21:07:22.079Z,5.57
2022-08-10T21:09:57.425Z,6.13
2022-08-10T21:12:28.262Z,5.95
2022-08-10T21:14:45.535Z,6.40
2022-08-10T21:17:06.997Z,6.00
2022-08-10T21:19:34.941Z,6.15
2022-08-10T21:22:04.415Z,6.82
2022-08-10T21:24:19.980Z,7.63
2022-08-10T21:26:30.829Z,7.38
2022-08-10T21:29:20.447Z,6.68
2022-08-10T21:31:36.226Z,6.60
2022-08-10T21:33:54.023Z,6.10
2022-08-10T21:36:08.980Z,6.40
2022-08-10T21:38:26.763Z,6.82
2022-08-10T21:40:44.066Z,7.32
2022-08-10T21:43:44.737Z,6.53
2022-08-10T21:46:23.710Z,6.93
2022-08-10T21:48:58.923Z,6.95
2022-08-10T21:52:01.280Z,6.47
2022-08-10T21:54:27.875Z,6.45
2022-08-10T21:56:54.483Z,6.72
2022-08-10T21:59:21.647Z,6.72
2022-08-10T22:01:51.618Z,6.72
2022-08-10T22:04:14.099Z,6.57
2022-08-10T22:06:52.362Z,6.45
2022-08-10T22:11:45.486Z,6.55
2022-08-10T22:14:09.984Z,7.13
2022-08-10T22:16:42.455Z,7.13
2022-08-10T22:19:13.496Z,6.63
2022-08-10T22:21:48.183Z,7.03
2022-08-10T22:24:22.960Z,7.20
2022-08-10T22:27:06.821Z,7.18
2022-08-10T22:29:42.407Z,7.38
2022-08-10T22:32:22.396Z,7.07
2022-08-10T22:35:09.931Z,7.15
2022-08-10T22:37:43.579Z,7.65
2022-08-10T22:40:17.260Z,7.68
2022-08-10T22:45:26.305Z,8.05
2022-08-10T22:47:51.037Z,7.50
2022-08-10T22:49:54.076Z,7.75
2022-08-10T22:52:12.633Z,7.93
2022-08-10T22:54:39.168Z,8.45
2022-08-10T22:57:00.714Z,8.80
2022-08-10T22:59:06.237Z,9.45
2022-08-10T23:01:36.434Z,8.80
2022-08-10T23:03:47.513Z,9.85
2022-08-10T23:06:00.414Z,10.15
2022-08-10T23:08:29.998Z,10.13
2022-08-10T23:10:40.695Z,11.32
2022-08-10T23:12:49.915Z,11.70
2022-08-10T23:15:13.737Z,10.63
2022-08-10T23:18:00.980Z,11.50
2022-08-10T23:20:08.653Z,11.10
2022-08-10T23:22:15.027Z,10.63
2022-08-10T23:24:26.970Z,10.77
2022-08-10T23:26:34.346Z,10.35
2022-08-10T23:28:58.865Z,10.30
2022-08-10T23:31:11.572Z,9.70
2022-08-10T23:33:17.340Z,10.43
2022-08-10T23:36:27.751Z,10.35
2022-08-10T23:38:13.824Z,9.35
2022-08-10T23:40:21.403Z,10.18
2022-08-10T23:42:27.031Z,9.63
2022-08-10T23:44:36.841Z,9.15
2022-08-10T23:46:43.840Z,10.38
2022-08-10T23:48:49.547Z,10.77
2022-08-10T23:50:58.394Z,10.82
2022-08-10T23:53:13.519Z,11.43
2022-08-10T23:55:24.881Z,10.00
2022-08-10T23:57:30.600Z,10.23
2022-08-10T23:59:35.010Z,11.40
